sensor_id;sensor_type;location;lat;lon;timestamp;P1;durP1;ratioP1;P2;durP2;ratioP2
47481;SDS011;33219;47.410;9.730;2022-10-16T00:00:49;6.12;;;2.70;;
47481;SDS011;33219;47.410;9.730;2022-10-16T00:03:17;3.87;;;1.80;;
47481;SDS011;33219;47.410;9.730;2022-10-16T00:05:44;5.30;;;1.87;;
47481;SDS011;33219;47.410;9.730;2022-10-16T00:08:12;4.33;;;2.00;;
47481;SDS011;33219;47.410;9.730;2022-10-16T00:10:39;4.60;;;2.00;;
47481;SDS011;33219;47.410;9.730;2022-10-16T00:13:07;5.47;;;2.20;;
47481;SDS011;33219;47.410;9.730;2022-10-16T00:15:35;5.75;;;2.15;;
47481;SDS011;33219;47.410;9.730;2022-10-16T00:18:04;3.58;;;2.10;;
47481;SDS011;33219;47.410;9.730;2022-10-16T00:20:33;9.00;;;1.90;;
47481;SDS011;33219;47.410;9.730;2022-10-16T00:23:03;2.42;;;1.70;;
47481;SDS011;33219;47.410;9.730;2022-10-16T00:25:31;5.20;;;1.62;;
47481;SDS011;33219;47.410;9.730;2022-10-16T00:28:00;3.92;;;1.60;;
47481;SDS011;33219;47.410;9.730;2022-10-16T00:30:28;4.50;;;1.72;;
47481;SDS011;33219;47.410;9.730;2022-10-16T00:32:55;4.22;;;1.62;;
47481;SDS011;33219;47.410;9.730;2022-10-16T00:35:23;4.72;;;2.00;;
47481;SDS011;33219;47.410;9.730;2022-10-16T00:37:50;4.37;;;1.72;;
47481;SDS011;33219;47.410;9.730;2022-10-16T00:40:18;5.80;;;1.90;;
47481;SDS011;33219;47.410;9.730;2022-10-16T00:42:46;4.80;;;2.02;;
47481;SDS011;33219;47.410;9.730;2022-10-16T00:45:13;5.87;;;2.20;;
47481;SDS011;33219;47.410;9.730;2022-10-16T00:47:42;3.72;;;2.00;;
47481;SDS011;33219;47.410;9.730;2022-10-16T00:52:53;3.05;;;1.80;;
47481;SDS011;33219;47.410;9.730;2022-10-16T00:55:22;3.60;;;2.22;;
47481;SDS011;33219;47.410;9.730;2022-10-16T00:57:51;4.78;;;2.15;;
47481;SDS011;33219;47.410;9.730;2022-10-16T01:00:25;5.62;;;2.20;;
47481;SDS011;33219;47.410;9.730;2022-10-16T01:02:58;10.38;;;2.40;;
47481;SDS011;33219;47.410;9.730;2022-10-16T01:05:23;4.60;;;2.15;;
47481;SDS011;33219;47.410;9.730;2022-10-16T01:08:11;4.62;;;2.77;;
47481;SDS011;33219;47.410;9.730;2022-10-16T01:10:48;3.72;;;2.30;;
47481;SDS011;33219;47.410;9.730;2022-10-16T01:13:24;3.87;;;1.98;;
47481;SDS011;33219;47.410;9.730;2022-10-16T01:16:07;4.08;;;2.22;;
47481;SDS011;33219;47.410;9.730;2022-10-16T01:18:43;5.45;;;2.30;;
47481;SDS011;33219;47.410;9.730;2022-10-16T01:21:15;4.95;;;2.30;;
47481;SDS011;33219;47.410;9.730;2022-10-16T01:29:29;5.62;;;2.40;;
47481;SDS011;33219;47.410;9.730;2022-10-16T01:31:56;3.62;;;2.20;;
47481;SDS011;33219;47.410;9.730;2022-10-16T01:34:28;4.00;;;2.30;;
47481;SDS011;33219;47.410;9.730;2022-10-16T01:37:05;7.50;;;2.12;;
47481;SDS011;33219;47.410;9.730;2022-10-16T01:39:38;4.65;;;2.20;;
47481;SDS011;33219;47.410;9.730;2022-10-16T01:42:09;7.03;;;2.60;;
47481;SDS011;33219;47.410;9.730;2022-10-16T01:44:44;5.42;;;2.25;;
47481;SDS011;33219;47.410;9.730;2022-10-16T01:47:15;3.58;;;2.10;;
47481;SDS011;33219;47.410;9.730;2022-10-16T01:49:44;4.00;;;2.10;;
47481;SDS011;33219;47.410;9.730;2022-10-16T01:52:14;4.33;;;2.12;;
47481;SDS011;33219;47.410;9.730;2022-10-16T01:54:43;4.58;;;2.30;;
47481;SDS011;33219;47.410;9.730;2022-10-16T01:57:13;3.95;;;2.25;;
47481;SDS011;33219;47.410;9.730;2022-10-16T01:59:44;7.00;;;2.27;;
47481;SDS011;33219;47.410;9.730;2022-10-16T02:02:13;4.10;;;2.33;;
47481;SDS011;33219;47.410;9.730;2022-10-16T02:04:44;6.17;;;2.30;;
47481;SDS011;33219;47.410;9.730;2022-10-16T02:07:14;5.92;;;2.08;;
47481;SDS011;33219;47.410;9.730;2022-10-16T02:09:42;4.33;;;2.20;;
47481;SDS011;33219;47.410;9.730;2022-10-16T02:12:45;6.22;;;2.60;;
47481;SDS011;33219;47.410;9.730;2022-10-16T02:14:56;7.33;;;2.40;;
47481;SDS011;33219;47.410;9.730;2022-10-16T02:17:23;6.65;;;2.20;;
47481;SDS011;33219;47.410;9.730;2022-10-16T02:19:52;7.33;;;2.17;;
47481;SDS011;33219;47.410;9.730;2022-10-16T02:22:24;7.42;;;2.20;;
47481;SDS011;33219;47.410;9.730;2022-10-16T02:25:02;3.80;;;1.80;;
47481;SDS011;33219;47.410;9.730;2022-10-16T02:27:52;3.50;;;2.00;;
47481;SDS011;33219;47.410;9.730;2022-10-16T02:30:33;5.05;;;2.12;;
47481;SDS011;33219;47.410;9.730;2022-10-16T02:33:06;4.55;;;2.20;;
47481;SDS011;33219;47.410;9.730;2022-10-16T02:35:36;7.05;;;2.35;;
47481;SDS011;33219;47.410;9.730;2022-10-16T02:38:05;3.92;;;2.15;;
47481;SDS011;33219;47.410;9.730;2022-10-16T02:40:34;7.65;;;2.47;;
47481;SDS011;33219;47.410;9.730;2022-10-16T02:43:03;5.33;;;2.50;;
47481;SDS011;33219;47.410;9.730;2022-10-16T02:45:31;5.80;;;2.47;;
47481;SDS011;33219;47.410;9.730;2022-10-16T02:47:59;3.80;;;2.10;;
47481;SDS011;33219;47.410;9.730;2022-10-16T02:50:27;7.28;;;2.52;;
47481;SDS011;33219;47.410;9.730;2022-10-16T02:52:54;5.53;;;2.67;;
47481;SDS011;33219;47.410;9.730;2022-10-16T02:55:22;6.05;;;2.35;;
47481;SDS011;33219;47.410;9.730;2022-10-16T02:57:49;5.08;;;2.30;;
47481;SDS011;33219;47.410;9.730;2022-10-16T03:00:23;5.10;;;2.33;;
47481;SDS011;33219;47.410;9.730;2022-10-16T03:02:47;4.50;;;2.33;;
47481;SDS011;33219;47.410;9.730;2022-10-16T03:05:14;5.85;;;2.47;;
47481;SDS011;33219;47.410;9.730;2022-10-16T03:07:42;7.25;;;2.50;;
47481;SDS011;33219;47.410;9.730;2022-10-16T03:10:10;4.72;;;2.33;;
47481;SDS011;33219;47.410;9.730;2022-10-16T03:12:39;3.80;;;2.47;;
47481;SDS011;33219;47.410;9.730;2022-10-16T03:15:07;6.42;;;2.42;;
47481;SDS011;33219;47.410;9.730;2022-10-16T03:17:35;5.80;;;2.42;;
47481;SDS011;33219;47.410;9.730;2022-10-16T03:20:03;5.53;;;2.67;;
47481;SDS011;33219;47.410;9.730;2022-10-16T03:22:30;3.55;;;2.30;;
47481;SDS011;33219;47.410;9.730;2022-10-16T03:24:58;5.65;;;2.27;;
47481;SDS011;33219;47.410;9.730;2022-10-16T03:27:26;3.80;;;2.40;;
47481;SDS011;33219;47.410;9.730;2022-10-16T03:29:53;5.08;;;3.00;;
47481;SDS011;33219;47.410;9.730;2022-10-16T03:32:21;7.20;;;3.20;;
47481;SDS011;33219;47.410;9.730;2022-10-16T03:34:50;6.87;;;3.00;;
47481;SDS011;33219;47.410;9.730;2022-10-16T03:37:22;5.00;;;3.10;;
47481;SDS011;33219;47.410;9.730;2022-10-16T03:39:50;3.95;;;2.50;;
47481;SDS011;33219;47.410;9.730;2022-10-16T03:42:18;4.60;;;2.83;;
47481;SDS011;33219;47.410;9.730;2022-10-16T03:44:46;5.78;;;2.80;;
47481;SDS011;33219;47.410;9.730;2022-10-16T03:47:14;6.95;;;2.75;;
47481;SDS011;33219;47.410;9.730;2022-10-16T03:49:43;5.22;;;2.70;;
47481;SDS011;33219;47.410;9.730;2022-10-16T03:52:10;5.12;;;2.75;;
47481;SDS011;33219;47.410;9.730;2022-10-16T03:54:38;4.37;;;2.58;;
47481;SDS011;33219;47.410;9.730;2022-10-16T03:57:06;8.30;;;2.45;;
47481;SDS011;33219;47.410;9.730;2022-10-16T03:59:33;10.03;;;2.37;;
47481;SDS011;33219;47.410;9.730;2022-10-16T04:02:01;6.55;;;2.12;;
47481;SDS011;33219;47.410;9.730;2022-10-16T04:04:28;5.03;;;2.30;;
47481;SDS011;33219;47.410;9.730;2022-10-16T04:06:56;6.17;;;2.20;;
47481;SDS011;33219;47.410;9.730;2022-10-16T04:09:24;6.85;;;2.37;;
47481;SDS011;33219;47.410;9.730;2022-10-16T04:11:51;4.55;;;2.00;;
47481;SDS011;33219;47.410;9.730;2022-10-16T04:14:19;4.25;;;2.10;;
47481;SDS011;33219;47.410;9.730;2022-10-16T04:16:46;5.03;;;2.47;;
47481;SDS011;33219;47.410;9.730;2022-10-16T04:19:14;7.92;;;2.17;;
47481;SDS011;33219;47.410;9.730;2022-10-16T04:21:41;3.42;;;2.00;;
47481;SDS011;33219;47.410;9.730;2022-10-16T04:24:09;9.40;;;2.30;;
47481;SDS011;33219;47.410;9.730;2022-10-16T04:26:37;3.33;;;1.55;;
47481;SDS011;33219;47.410;9.730;2022-10-16T04:29:05;3.75;;;1.30;;
47481;SDS011;33219;47.410;9.730;2022-10-16T04:31:33;6.53;;;1.62;;
47481;SDS011;33219;47.410;9.730;2022-10-16T04:34:00;3.10;;;1.67;;
47481;SDS011;33219;47.410;9.730;2022-10-16T04:36:28;4.87;;;1.92;;
47481;SDS011;33219;47.410;9.730;2022-10-16T04:38:56;6.08;;;2.50;;
47481;SDS011;33219;47.410;9.730;2022-10-16T04:41:24;4.75;;;2.17;;
47481;SDS011;33219;47.410;9.730;2022-10-16T04:43:51;4.67;;;2.30;;
47481;SDS011;33219;47.410;9.730;2022-10-16T04:46:19;4.10;;;2.22;;
47481;SDS011;33219;47.410;9.730;2022-10-16T04:48:46;3.83;;;2.40;;
47481;SDS011;33219;47.410;9.730;2022-10-16T04:51:14;6.40;;;2.30;;
47481;SDS011;33219;47.410;9.730;2022-10-16T04:53:42;5.42;;;2.25;;
47481;SDS011;33219;47.410;9.730;2022-10-16T04:56:09;4.22;;;2.05;;
47481;SDS011;33219;47.410;9.730;2022-10-16T04:58:37;5.65;;;2.25;;
47481;SDS011;33219;47.410;9.730;2022-10-16T05:01:04;3.05;;;1.98;;
47481;SDS011;33219;47.410;9.730;2022-10-16T05:03:32;4.33;;;2.50;;
47481;SDS011;33219;47.410;9.730;2022-10-16T05:06:00;6.75;;;2.40;;
47481;SDS011;33219;47.410;9.730;2022-10-16T05:08:29;4.97;;;2.60;;
47481;SDS011;33219;47.410;9.730;2022-10-16T05:10:57;4.30;;;2.50;;
47481;SDS011;33219;47.410;9.730;2022-10-16T05:13:24;5.80;;;2.65;;
47481;SDS011;33219;47.410;9.730;2022-10-16T05:15:52;4.17;;;2.50;;
47481;SDS011;33219;47.410;9.730;2022-10-16T05:18:20;3.98;;;2.58;;
47481;SDS011;33219;47.410;9.730;2022-10-16T05:20:47;4.45;;;2.30;;
47481;SDS011;33219;47.410;9.730;2022-10-16T05:23:15;2.95;;;2.02;;
47481;SDS011;33219;47.410;9.730;2022-10-16T05:25:42;2.62;;;1.80;;
47481;SDS011;33219;47.410;9.730;2022-10-16T05:28:10;5.22;;;2.00;;
47481;SDS011;33219;47.410;9.730;2022-10-16T05:30:37;2.35;;;1.42;;
47481;SDS011;33219;47.410;9.730;2022-10-16T05:33:05;1.77;;;1.20;;
47481;SDS011;33219;47.410;9.730;2022-10-16T05:35:33;9.48;;;1.62;;
47481;SDS011;33219;47.410;9.730;2022-10-16T05:38:01;4.67;;;1.70;;
47481;SDS011;33219;47.410;9.730;2022-10-16T05:40:28;5.12;;;1.10;;
47481;SDS011;33219;47.410;9.730;2022-10-16T05:42:56;1.98;;;1.22;;
47481;SDS011;33219;47.410;9.730;2022-10-16T05:45:23;5.00;;;1.85;;
47481;SDS011;33219;47.410;9.730;2022-10-16T05:47:51;2.65;;;1.65;;
47481;SDS011;33219;47.410;9.730;2022-10-16T05:50:18;3.08;;;1.80;;
47481;SDS011;33219;47.410;9.730;2022-10-16T05:52:46;3.67;;;1.90;;
47481;SDS011;33219;47.410;9.730;2022-10-16T05:55:14;4.08;;;2.05;;
47481;SDS011;33219;47.410;9.730;2022-10-16T05:57:41;6.08;;;2.60;;
47481;SDS011;33219;47.410;9.730;2022-10-16T06:00:09;4.53;;;2.27;;
47481;SDS011;33219;47.410;9.730;2022-10-16T06:02:37;5.20;;;2.35;;
47481;SDS011;33219;47.410;9.730;2022-10-16T06:05:05;5.37;;;2.50;;
47481;SDS011;33219;47.410;9.730;2022-10-16T06:07:35;4.45;;;2.30;;
47481;SDS011;33219;47.410;9.730;2022-10-16T06:10:04;4.40;;;2.35;;
47481;SDS011;33219;47.410;9.730;2022-10-16T06:12:32;4.92;;;2.50;;
47481;SDS011;33219;47.410;9.730;2022-10-16T06:14:59;5.05;;;2.20;;
47481;SDS011;33219;47.410;9.730;2022-10-16T06:17:27;6.42;;;2.33;;
47481;SDS011;33219;47.410;9.730;2022-10-16T06:19:54;5.37;;;2.60;;
47481;SDS011;33219;47.410;9.730;2022-10-16T06:22:22;3.77;;;2.40;;
47481;SDS011;33219;47.410;9.730;2022-10-16T06:24:50;5.72;;;2.67;;
47481;SDS011;33219;47.410;9.730;2022-10-16T06:27:17;4.70;;;2.42;;
47481;SDS011;33219;47.410;9.730;2022-10-16T06:29:49;3.52;;;2.50;;
47481;SDS011;33219;47.410;9.730;2022-10-16T06:32:14;6.20;;;3.92;;
47481;SDS011;33219;47.410;9.730;2022-10-16T06:34:41;5.87;;;3.40;;
47481;SDS011;33219;47.410;9.730;2022-10-16T06:37:09;5.97;;;3.10;;
47481;SDS011;33219;47.410;9.730;2022-10-16T06:39:36;5.37;;;2.90;;
47481;SDS011;33219;47.410;9.730;2022-10-16T06:42:04;6.85;;;2.83;;
47481;SDS011;33219;47.410;9.730;2022-10-16T06:44:32;7.67;;;3.00;;
47481;SDS011;33219;47.410;9.730;2022-10-16T06:46:59;10.58;;;3.50;;
47481;SDS011;33219;47.410;9.730;2022-10-16T06:49:27;5.95;;;3.27;;
47481;SDS011;33219;47.410;9.730;2022-10-16T06:51:55;5.25;;;2.77;;
47481;SDS011;33219;47.410;9.730;2022-10-16T06:54:22;6.40;;;3.12;;
47481;SDS011;33219;47.410;9.730;2022-10-16T06:56:50;6.25;;;2.72;;
47481;SDS011;33219;47.410;9.730;2022-10-16T06:59:20;10.40;;;3.67;;
47481;SDS011;33219;47.410;9.730;2022-10-16T07:01:48;8.25;;;3.60;;
47481;SDS011;33219;47.410;9.730;2022-10-16T07:04:16;7.30;;;3.20;;
47481;SDS011;33219;47.410;9.730;2022-10-16T07:06:43;5.33;;;2.83;;
47481;SDS011;33219;47.410;9.730;2022-10-16T07:09:11;3.52;;;2.00;;
47481;SDS011;33219;47.410;9.730;2022-10-16T07:11:39;8.23;;;3.35;;
47481;SDS011;33219;47.410;9.730;2022-10-16T07:14:15;3.08;;;2.20;;
47481;SDS011;33219;47.410;9.730;2022-10-16T07:16:43;6.37;;;2.10;;
47481;SDS011;33219;47.410;9.730;2022-10-16T07:19:11;4.97;;;2.00;;
47481;SDS011;33219;47.410;9.730;2022-10-16T07:21:41;3.80;;;2.12;;
47481;SDS011;33219;47.410;9.730;2022-10-16T07:24:13;4.37;;;2.35;;
47481;SDS011;33219;47.410;9.730;2022-10-16T07:26:42;3.42;;;1.90;;
47481;SDS011;33219;47.410;9.730;2022-10-16T07:29:12;3.50;;;2.20;;
47481;SDS011;33219;47.410;9.730;2022-10-16T07:31:42;3.58;;;2.30;;
47481;SDS011;33219;47.410;9.730;2022-10-16T07:34:11;4.33;;;1.55;;
47481;SDS011;33219;47.410;9.730;2022-10-16T07:36:40;4.03;;;1.90;;
47481;SDS011;33219;47.410;9.730;2022-10-16T07:39:07;2.22;;;1.50;;
47481;SDS011;33219;47.410;9.730;2022-10-16T07:41:35;3.92;;;2.30;;
47481;SDS011;33219;47.410;9.730;2022-10-16T07:44:03;2.83;;;1.70;;
47481;SDS011;33219;47.410;9.730;2022-10-16T07:46:31;4.53;;;2.17;;
47481;SDS011;33219;47.410;9.730;2022-10-16T07:49:01;3.98;;;2.08;;
47481;SDS011;33219;47.410;9.730;2022-10-16T07:51:29;3.90;;;1.75;;
47481;SDS011;33219;47.410;9.730;2022-10-16T07:53:57;3.17;;;1.80;;
47481;SDS011;33219;47.410;9.730;2022-10-16T07:56:24;3.70;;;1.75;;
47481;SDS011;33219;47.410;9.730;2022-10-16T07:58:52;6.08;;;1.72;;
47481;SDS011;33219;47.410;9.730;2022-10-16T08:01:20;4.90;;;1.98;;
47481;SDS011;33219;47.410;9.730;2022-10-16T08:03:48;4.45;;;2.08;;
47481;SDS011;33219;47.410;9.730;2022-10-16T08:06:18;4.37;;;2.00;;
47481;SDS011;33219;47.410;9.730;2022-10-16T08:08:47;5.05;;;2.10;;
47481;SDS011;33219;47.410;9.730;2022-10-16T08:11:15;3.45;;;1.95;;
47481;SDS011;33219;47.410;9.730;2022-10-16T08:13:48;6.47;;;1.90;;
47481;SDS011;33219;47.410;9.730;2022-10-16T08:16:12;8.18;;;2.15;;
47481;SDS011;33219;47.410;9.730;2022-10-16T08:18:40;4.85;;;2.02;;
47481;SDS011;33219;47.410;9.730;2022-10-16T08:21:16;3.05;;;2.00;;
47481;SDS011;33219;47.410;9.730;2022-10-16T08:23:45;5.12;;;2.40;;
47481;SDS011;33219;47.410;9.730;2022-10-16T08:26:12;6.45;;;2.33;;
47481;SDS011;33219;47.410;9.730;2022-10-16T08:28:40;5.35;;;1.90;;
47481;SDS011;33219;47.410;9.730;2022-10-16T08:31:12;6.08;;;1.90;;
47481;SDS011;33219;47.410;9.730;2022-10-16T08:33:41;5.05;;;1.85;;
47481;SDS011;33219;47.410;9.730;2022-10-16T08:36:12;4.25;;;1.87;;
47481;SDS011;33219;47.410;9.730;2022-10-16T08:38:42;5.70;;;1.90;;
47481;SDS011;33219;47.410;9.730;2022-10-16T08:43:47;4.10;;;1.80;;
47481;SDS011;33219;47.410;9.730;2022-10-16T08:48:51;9.43;;;1.75;;
47481;SDS011;33219;47.410;9.730;2022-10-16T08:51:27;3.05;;;1.60;;
47481;SDS011;33219;47.410;9.730;2022-10-16T08:53:54;4.28;;;2.00;;
47481;SDS011;33219;47.410;9.730;2022-10-16T08:56:24;3.22;;;1.72;;
47481;SDS011;33219;47.410;9.730;2022-10-16T08:58:53;2.85;;;1.55;;
47481;SDS011;33219;47.410;9.730;2022-10-16T09:01:22;4.28;;;1.67;;
47481;SDS011;33219;47.410;9.730;2022-10-16T09:06:35;3.25;;;1.50;;
47481;SDS011;33219;47.410;9.730;2022-10-16T09:14:29;3.52;;;1.50;;
47481;SDS011;33219;47.410;9.730;2022-10-16T09:17:32;2.77;;;1.50;;
47481;SDS011;33219;47.410;9.730;2022-10-16T09:22:47;3.65;;;1.47;;
47481;SDS011;33219;47.410;9.730;2022-10-16T09:25:18;3.37;;;1.32;;
47481;SDS011;33219;47.410;9.730;2022-10-16T09:27:55;3.15;;;1.65;;
47481;SDS011;33219;47.410;9.730;2022-10-16T09:30:19;4.08;;;1.60;;
47481;SDS011;33219;47.410;9.730;2022-10-16T09:32:48;2.25;;;1.40;;
47481;SDS011;33219;47.410;9.730;2022-10-16T09:35:22;3.22;;;1.40;;
47481;SDS011;33219;47.410;9.730;2022-10-16T09:38:01;1.98;;;1.40;;
47481;SDS011;33219;47.410;9.730;2022-10-16T09:40:32;3.27;;;1.60;;
47481;SDS011;33219;47.410;9.730;2022-10-16T09:43:03;3.15;;;1.45;;
47481;SDS011;33219;47.410;9.730;2022-10-16T09:45:41;2.33;;;1.50;;
47481;SDS011;33219;47.410;9.730;2022-10-16T09:48:12;2.95;;;1.70;;
47481;SDS011;33219;47.410;9.730;2022-10-16T09:53:14;2.27;;;1.50;;
47481;SDS011;33219;47.410;9.730;2022-10-16T09:55:51;3.12;;;1.45;;
47481;SDS011;33219;47.410;9.730;2022-10-16T09:58:23;3.85;;;1.10;;
47481;SDS011;33219;47.410;9.730;2022-10-16T10:00:51;3.62;;;1.30;;
47481;SDS011;33219;47.410;9.730;2022-10-16T10:03:30;2.20;;;1.60;;
47481;SDS011;33219;47.410;9.730;2022-10-16T10:06:26;3.95;;;1.52;;
47481;SDS011;33219;47.410;9.730;2022-10-16T10:08:59;3.05;;;1.50;;
47481;SDS011;33219;47.410;9.730;2022-10-16T10:12:03;3.50;;;1.65;;
47481;SDS011;33219;47.410;9.730;2022-10-16T10:19:40;2.45;;;1.50;;
47481;SDS011;33219;47.410;9.730;2022-10-16T10:22:41;3.00;;;1.62;;
47481;SDS011;33219;47.410;9.730;2022-10-16T10:33:48;2.98;;;1.62;;
47481;SDS011;33219;47.410;9.730;2022-10-16T10:38:58;4.12;;;1.77;;
47481;SDS011;33219;47.410;9.730;2022-10-16T10:52:42;2.50;;;1.52;;
47481;SDS011;33219;47.410;9.730;2022-10-16T11:00:50;3.75;;;1.60;;
47481;SDS011;33219;47.410;9.730;2022-10-16T11:06:10;2.45;;;1.77;;
47481;SDS011;33219;47.410;9.730;2022-10-16T11:08:48;3.17;;;2.10;;
47481;SDS011;33219;47.410;9.730;2022-10-16T11:14:14;2.90;;;1.70;;
47481;SDS011;33219;47.410;9.730;2022-10-16T11:16:58;2.25;;;1.57;;
47481;SDS011;33219;47.410;9.730;2022-10-16T11:19:37;2.33;;;1.50;;
47481;SDS011;33219;47.410;9.730;2022-10-16T11:28:01;3.20;;;1.67;;
47481;SDS011;33219;47.410;9.730;2022-10-16T11:30:33;4.90;;;1.60;;
47481;SDS011;33219;47.410;9.730;2022-10-16T11:33:04;3.37;;;1.57;;
47481;SDS011;33219;47.410;9.730;2022-10-16T11:38:10;2.70;;;1.62;;
47481;SDS011;33219;47.410;9.730;2022-10-16T11:40:38;3.42;;;1.87;;
47481;SDS011;33219;47.410;9.730;2022-10-16T11:43:28;2.70;;;1.60;;
47481;SDS011;33219;47.410;9.730;2022-10-16T11:45:55;3.10;;;1.80;;
47481;SDS011;33219;47.410;9.730;2022-10-16T11:48:32;4.58;;;1.70;;
47481;SDS011;33219;47.410;9.730;2022-10-16T11:56:51;2.40;;;1.57;;
47481;SDS011;33219;47.410;9.730;2022-10-16T11:59:27;3.60;;;1.45;;
47481;SDS011;33219;47.410;9.730;2022-10-16T12:04:48;2.27;;;1.65;;
47481;SDS011;33219;47.410;9.730;2022-10-16T12:07:14;3.65;;;1.60;;
47481;SDS011;33219;47.410;9.730;2022-10-16T12:09:47;2.33;;;1.50;;
47481;SDS011;33219;47.410;9.730;2022-10-16T12:12:28;3.02;;;1.60;;
47481;SDS011;33219;47.410;9.730;2022-10-16T12:15:18;3.00;;;1.60;;
47481;SDS011;33219;47.410;9.730;2022-10-16T12:17:35;2.37;;;1.55;;
47481;SDS011;33219;47.410;9.730;2022-10-16T12:23:52;3.65;;;1.70;;
47481;SDS011;33219;47.410;9.730;2022-10-16T12:25:40;2.05;;;1.50;;
47481;SDS011;33219;47.410;9.730;2022-10-16T12:28:06;2.22;;;1.40;;
47481;SDS011;33219;47.410;9.730;2022-10-16T12:30:52;2.58;;;1.52;;
47481;SDS011;33219;47.410;9.730;2022-10-16T12:33:31;1.80;;;1.30;;
47481;SDS011;33219;47.410;9.730;2022-10-16T12:36:11;2.47;;;1.50;;
47481;SDS011;33219;47.410;9.730;2022-10-16T12:38:52;2.87;;;1.55;;
47481;SDS011;33219;47.410;9.730;2022-10-16T12:41:28;3.02;;;1.60;;
47481;SDS011;33219;47.410;9.730;2022-10-16T12:44:00;2.17;;;1.50;;
47481;SDS011;33219;47.410;9.730;2022-10-16T12:49:48;3.45;;;1.62;;
47481;SDS011;33219;47.410;9.730;2022-10-16T12:51:34;2.12;;;1.30;;
47481;SDS011;33219;47.410;9.730;2022-10-16T13:13:54;3.98;;;2.35;;
47481;SDS011;33219;47.410;9.730;2022-10-16T13:19:24;3.40;;;2.25;;
47481;SDS011;33219;47.410;9.730;2022-10-16T13:24:53;8.30;;;2.55;;
47481;SDS011;33219;47.410;9.730;2022-10-16T13:30:19;3.77;;;2.33;;
47481;SDS011;33219;47.410;9.730;2022-10-16T13:32:50;3.80;;;2.40;;
47481;SDS011;33219;47.410;9.730;2022-10-16T13:35:24;7.12;;;2.77;;
47481;SDS011;33219;47.410;9.730;2022-10-16T13:40:54;4.47;;;2.60;;
47481;SDS011;33219;47.410;9.730;2022-10-16T13:46:15;5.92;;;2.40;;
47481;SDS011;33219;47.410;9.730;2022-10-16T13:48:44;6.05;;;3.25;;
47481;SDS011;33219;47.410;9.730;2022-10-16T13:51:14;3.45;;;2.75;;
47481;SDS011;33219;47.410;9.730;2022-10-16T13:53:44;4.22;;;2.98;;
47481;SDS011;33219;47.410;9.730;2022-10-16T13:56:13;4.12;;;2.80;;
47481;SDS011;33219;47.410;9.730;2022-10-16T13:58:42;4.95;;;2.40;;
47481;SDS011;33219;47.410;9.730;2022-10-16T14:01:18;4.72;;;2.70;;
47481;SDS011;33219;47.410;9.730;2022-10-16T14:03:53;7.85;;;2.70;;
47481;SDS011;33219;47.410;9.730;2022-10-16T14:06:23;6.28;;;2.90;;
47481;SDS011;33219;47.410;9.730;2022-10-16T14:08:57;3.83;;;2.40;;
47481;SDS011;33219;47.410;9.730;2022-10-16T14:11:22;4.33;;;2.58;;
47481;SDS011;33219;47.410;9.730;2022-10-16T14:13:51;3.80;;;2.25;;
47481;SDS011;33219;47.410;9.730;2022-10-16T14:16:20;5.85;;;2.65;;
47481;SDS011;33219;47.410;9.730;2022-10-16T14:19:04;5.75;;;2.25;;
47481;SDS011;33219;47.410;9.730;2022-10-16T14:21:20;5.33;;;2.60;;
47481;SDS011;33219;47.410;9.730;2022-10-16T14:23:48;8.40;;;2.90;;
47481;SDS011;33219;47.410;9.730;2022-10-16T14:26:17;3.87;;;2.60;;
47481;SDS011;33219;47.410;9.730;2022-10-16T14:28:48;3.45;;;2.40;;
47481;SDS011;33219;47.410;9.730;2022-10-16T14:33:47;6.20;;;2.83;;
47481;SDS011;33219;47.410;9.730;2022-10-16T14:36:15;3.62;;;2.50;;
47481;SDS011;33219;47.410;9.730;2022-10-16T14:38:56;3.47;;;2.60;;
47481;SDS011;33219;47.410;9.730;2022-10-16T14:41:30;4.70;;;2.72;;
47481;SDS011;33219;47.410;9.730;2022-10-16T14:44:03;5.42;;;2.67;;
47481;SDS011;33219;47.410;9.730;2022-10-16T14:49:04;6.83;;;2.55;;
47481;SDS011;33219;47.410;9.730;2022-10-16T14:51:33;4.03;;;2.47;;
47481;SDS011;33219;47.410;9.730;2022-10-16T14:54:01;5.20;;;2.52;;
47481;SDS011;33219;47.410;9.730;2022-10-16T14:56:29;6.45;;;2.80;;
47481;SDS011;33219;47.410;9.730;2022-10-16T14:58:59;6.75;;;2.62;;
47481;SDS011;33219;47.410;9.730;2022-10-16T15:01:27;4.15;;;2.50;;
47481;SDS011;33219;47.410;9.730;2022-10-16T15:03:54;5.30;;;2.80;;
47481;SDS011;33219;47.410;9.730;2022-10-16T15:06:22;5.78;;;2.87;;
47481;SDS011;33219;47.410;9.730;2022-10-16T15:08:49;3.85;;;2.90;;
47481;SDS011;33219;47.410;9.730;2022-10-16T15:11:18;5.58;;;2.77;;
47481;SDS011;33219;47.410;9.730;2022-10-16T15:13:46;8.38;;;2.87;;
47481;SDS011;33219;47.410;9.730;2022-10-16T15:16:14;5.22;;;2.90;;
47481;SDS011;33219;47.410;9.730;2022-10-16T15:18:43;4.55;;;2.75;;
47481;SDS011;33219;47.410;9.730;2022-10-16T15:21:18;4.10;;;2.62;;
47481;SDS011;33219;47.410;9.730;2022-10-16T15:23:56;8.18;;;2.65;;
47481;SDS011;33219;47.410;9.730;2022-10-16T15:26:28;4.42;;;3.17;;
47481;SDS011;33219;47.410;9.730;2022-10-16T15:31:23;3.40;;;2.60;;
47481;SDS011;33219;47.410;9.730;2022-10-16T15:33:52;8.28;;;3.37;;
47481;SDS011;33219;47.410;9.730;2022-10-16T15:36:30;5.03;;;2.67;;
47481;SDS011;33219;47.410;9.730;2022-10-16T15:38:55;4.95;;;2.85;;
47481;SDS011;33219;47.410;9.730;2022-10-16T15:41:23;6.47;;;3.00;;
47481;SDS011;33219;47.410;9.730;2022-10-16T15:43:50;5.55;;;3.15;;
47481;SDS011;33219;47.410;9.730;2022-10-16T15:46:19;4.67;;;2.70;;
47481;SDS011;33219;47.410;9.730;2022-10-16T15:48:49;6.55;;;2.80;;
47481;SDS011;33219;47.410;9.730;2022-10-16T15:51:24;6.35;;;3.77;;
47481;SDS011;33219;47.410;9.730;2022-10-16T15:53:47;6.42;;;3.12;;
47481;SDS011;33219;47.410;9.730;2022-10-16T15:56:16;13.45;;;3.50;;
47481;SDS011;33219;47.410;9.730;2022-10-16T15:58:44;5.05;;;2.58;;
47481;SDS011;33219;47.410;9.730;2022-10-16T16:01:12;5.67;;;2.90;;
47481;SDS011;33219;47.410;9.730;2022-10-16T16:03:39;5.85;;;2.85;;
47481;SDS011;33219;47.410;9.730;2022-10-16T16:06:11;5.92;;;3.02;;
47481;SDS011;33219;47.410;9.730;2022-10-16T16:08:40;5.58;;;2.85;;
47481;SDS011;33219;47.410;9.730;2022-10-16T16:11:08;4.87;;;2.72;;
47481;SDS011;33219;47.410;9.730;2022-10-16T16:13:37;4.55;;;2.87;;
47481;SDS011;33219;47.410;9.730;2022-10-16T16:16:06;5.03;;;2.80;;
47481;SDS011;33219;47.410;9.730;2022-10-16T16:18:36;6.45;;;3.10;;
47481;SDS011;33219;47.410;9.730;2022-10-16T16:21:04;6.28;;;2.92;;
47481;SDS011;33219;47.410;9.730;2022-10-16T16:23:32;5.58;;;2.47;;
47481;SDS011;33219;47.410;9.730;2022-10-16T16:26:10;5.37;;;2.80;;
47481;SDS011;33219;47.410;9.730;2022-10-16T16:28:40;6.45;;;2.95;;
47481;SDS011;33219;47.410;9.730;2022-10-16T16:31:09;5.60;;;2.77;;
47481;SDS011;33219;47.410;9.730;2022-10-16T16:33:36;6.65;;;2.98;;
47481;SDS011;33219;47.410;9.730;2022-10-16T16:36:05;7.47;;;2.92;;
47481;SDS011;33219;47.410;9.730;2022-10-16T16:38:33;7.90;;;3.00;;
47481;SDS011;33219;47.410;9.730;2022-10-16T16:41:17;6.62;;;2.58;;
47481;SDS011;33219;47.410;9.730;2022-10-16T16:43:46;6.30;;;2.70;;
47481;SDS011;33219;47.410;9.730;2022-10-16T16:46:14;4.55;;;2.20;;
47481;SDS011;33219;47.410;9.730;2022-10-16T16:48:42;7.65;;;2.47;;
47481;SDS011;33219;47.410;9.730;2022-10-16T16:51:14;6.03;;;2.47;;
47481;SDS011;33219;47.410;9.730;2022-10-16T16:53:45;4.83;;;2.50;;
47481;SDS011;33219;47.410;9.730;2022-10-16T16:56:18;3.65;;;2.77;;
47481;SDS011;33219;47.410;9.730;2022-10-16T16:58:48;6.87;;;2.72;;
47481;SDS011;33219;47.410;9.730;2022-10-16T17:01:17;7.05;;;2.90;;
47481;SDS011;33219;47.410;9.730;2022-10-16T17:03:46;4.53;;;2.70;;
47481;SDS011;33219;47.410;9.730;2022-10-16T17:06:15;4.47;;;2.67;;
47481;SDS011;33219;47.410;9.730;2022-10-16T17:08:45;4.62;;;2.37;;
47481;SDS011;33219;47.410;9.730;2022-10-16T17:11:17;5.50;;;2.60;;
47481;SDS011;33219;47.410;9.730;2022-10-16T17:13:49;4.85;;;2.40;;
47481;SDS011;33219;47.410;9.730;2022-10-16T17:16:19;5.00;;;2.15;;